sensor_id;sensor_type;location;lat;lon;timestamp;P1;durP1;ratioP1;P2;durP2;ratioP2
4389;SDS011;2209;48.982;8.406;2022-11-15T00:01:57;11.07;;;9.90;;
4389;SDS011;2209;48.982;8.406;2022-11-15T00:04:20;16.07;;;10.97;;
4389;SDS011;2209;48.982;8.406;2022-11-15T00:06:42;16.87;;;11.07;;
4389;SDS011;2209;48.982;8.406;2022-11-15T00:09:04;12.63;;;11.40;;
4389;SDS011;2209;48.982;8.406;2022-11-15T00:11:26;14.30;;;11.53;;
4389;SDS011;2209;48.982;8.406;2022-11-15T00:13:48;14.40;;;11.10;;
4389;SDS011;2209;48.982;8.406;2022-11-15T00:16:12;13.87;;;11.13;;
4389;SDS011;2209;48.982;8.406;2022-11-15T00:18:34;12.73;;;11.40;;
4389;SDS011;2209;48.982;8.406;2022-11-15T00:21:02;13.50;;;10.80;;
4389;SDS011;2209;48.982;8.406;2022-11-15T00:23:25;11.43;;;10.23;;
4389;SDS011;2209;48.982;8.406;2022-11-15T00:25:47;12.23;;;10.93;;
4389;SDS011;2209;48.982;8.406;2022-11-15T00:28:16;12.57;;;11.27;;
4389;SDS011;2209;48.982;8.406;2022-11-15T00:30:39;13.13;;;11.43;;
4389;SDS011;2209;48.982;8.406;2022-11-15T00:33:03;13.33;;;10.30;;
4389;SDS011;2209;48.982;8.406;2022-11-15T00:35:26;13.40;;;11.57;;
4389;SDS011;2209;48.982;8.406;2022-11-15T00:37:48;11.87;;;10.60;;
4389;SDS011;2209;48.982;8.406;2022-11-15T00:40:10;11.80;;;10.20;;
4389;SDS011;2209;48.982;8.406;2022-11-15T00:42:34;12.03;;;10.83;;
4389;SDS011;2209;48.982;8.406;2022-11-15T00:44:56;12.90;;;11.60;;
4389;SDS011;2209;48.982;8.406;2022-11-15T00:47:18;15.27;;;12.03;;
4389;SDS011;2209;48.982;8.406;2022-11-15T00:49:41;11.60;;;10.47;;
4389;SDS011;2209;48.982;8.406;2022-11-15T00:52:03;12.77;;;10.50;;
4389;SDS011;2209;48.982;8.406;2022-11-15T00:54:25;13.73;;;11.67;;
4389;SDS011;2209;48.982;8.406;2022-11-15T00:56:47;19.23;;;12.77;;
4389;SDS011;2209;48.982;8.406;2022-11-15T00:59:09;14.73;;;12.10;;
4389;SDS011;2209;48.982;8.406;2022-11-15T01:01:31;12.13;;;10.93;;
4389;SDS011;2209;48.982;8.406;2022-11-15T01:03:53;13.57;;;10.97;;
4389;SDS011;2209;48.982;8.406;2022-11-15T01:06:17;14.67;;;10.57;;
4389;SDS011;2209;48.982;8.406;2022-11-15T01:08:39;12.33;;;11.03;;
4389;SDS011;2209;48.982;8.406;2022-11-15T01:11:02;17.03;;;10.43;;
4389;SDS011;2209;48.982;8.406;2022-11-15T01:13:24;16.43;;;10.60;;
4389;SDS011;2209;48.982;8.406;2022-11-15T01:15:46;12.63;;;10.70;;
4389;SDS011;2209;48.982;8.406;2022-11-15T01:18:09;11.93;;;10.67;;
4389;SDS011;2209;48.982;8.406;2022-11-15T01:20:31;12.57;;;10.13;;
4389;SDS011;2209;48.982;8.406;2022-11-15T01:22:54;14.17;;;10.30;;
4389;SDS011;2209;48.982;8.406;2022-11-15T01:25:16;14.43;;;10.90;;
4389;SDS011;2209;48.982;8.406;2022-11-15T01:27:38;17.30;;;12.53;;
4389;SDS011;2209;48.982;8.406;2022-11-15T01:30:00;12.77;;;11.00;;
4389;SDS011;2209;48.982;8.406;2022-11-15T01:32:22;11.63;;;10.43;;
4389;SDS011;2209;48.982;8.406;2022-11-15T01:34:44;13.80;;;10.80;;
4389;SDS011;2209;48.982;8.406;2022-11-15T01:37:06;11.60;;;10.50;;
4389;SDS011;2209;48.982;8.406;2022-11-15T01:39:30;13.07;;;9.80;;
4389;SDS011;2209;48.982;8.406;2022-11-15T01:41:52;11.90;;;10.70;;
4389;SDS011;2209;48.982;8.406;2022-11-15T01:47:05;12.77;;;11.00;;
4389;SDS011;2209;48.982;8.406;2022-11-15T01:49:31;11.90;;;10.57;;
4389;SDS011;2209;48.982;8.406;2022-11-15T01:51:56;13.53;;;10.73;;
4389;SDS011;2209;48.982;8.406;2022-11-15T01:54:19;13.20;;;10.63;;
4389;SDS011;2209;48.982;8.406;2022-11-15T01:56:44;13.30;;;11.60;;
4389;SDS011;2209;48.982;8.406;2022-11-15T01:59:13;11.43;;;10.13;;
4389;SDS011;2209;48.982;8.406;2022-11-15T02:01:35;14.40;;;10.50;;
4389;SDS011;2209;48.982;8.406;2022-11-15T02:03:59;13.07;;;10.50;;
4389;SDS011;2209;48.982;8.406;2022-11-15T02:06:25;12.90;;;11.30;;
4389;SDS011;2209;48.982;8.406;2022-11-15T02:08:47;12.73;;;9.90;;
4389;SDS011;2209;48.982;8.406;2022-11-15T02:11:10;12.03;;;10.83;;
4389;SDS011;2209;48.982;8.406;2022-11-15T02:13:33;10.53;;;9.43;;
4389;SDS011;2209;48.982;8.406;2022-11-15T02:15:58;14.23;;;10.80;;
4389;SDS011;2209;48.982;8.406;2022-11-15T02:18:28;11.00;;;10.00;;
4389;SDS011;2209;48.982;8.406;2022-11-15T02:20:58;11.10;;;9.33;;
4389;SDS011;2209;48.982;8.406;2022-11-15T02:26:41;13.00;;;9.87;;
4389;SDS011;2209;48.982;8.406;2022-11-15T02:29:30;12.20;;;9.87;;
4389;SDS011;2209;48.982;8.406;2022-11-15T02:32:11;11.03;;;8.90;;
4389;SDS011;2209;48.982;8.406;2022-11-15T02:34:43;12.43;;;11.17;;
4389;SDS011;2209;48.982;8.406;2022-11-15T02:37:13;11.13;;;10.03;;
4389;SDS011;2209;48.982;8.406;2022-11-15T02:39:42;15.00;;;10.70;;
4389;SDS011;2209;48.982;8.406;2022-11-15T02:42:11;11.60;;;10.50;;
4389;SDS011;2209;48.982;8.406;2022-11-15T02:44:56;11.63;;;9.20;;
4389;SDS011;2209;48.982;8.406;2022-11-15T02:47:24;10.90;;;9.80;;
4389;SDS011;2209;48.982;8.406;2022-11-15T02:49:50;14.77;;;10.80;;
4389;SDS011;2209;48.982;8.406;2022-11-15T02:52:15;10.43;;;9.43;;
4389;SDS011;2209;48.982;8.406;2022-11-15T02:54:38;13.63;;;11.27;;
4389;SDS011;2209;48.982;8.406;2022-11-15T02:57:01;11.13;;;8.70;;
4389;SDS011;2209;48.982;8.406;2022-11-15T02:59:36;12.33;;;9.77;;
4389;SDS011;2209;48.982;8.406;2022-11-15T03:02:16;11.27;;;9.90;;
4389;SDS011;2209;48.982;8.406;2022-11-15T03:04:49;10.53;;;9.43;;
4389;SDS011;2209;48.982;8.406;2022-11-15T03:07:18;10.60;;;9.50;;
4389;SDS011;2209;48.982;8.406;2022-11-15T03:09:48;14.23;;;10.53;;
4389;SDS011;2209;48.982;8.406;2022-11-15T03:12:18;12.93;;;10.00;;
4389;SDS011;2209;48.982;8.406;2022-11-15T03:14:49;9.87;;;8.87;;
4389;SDS011;2209;48.982;8.406;2022-11-15T03:17:19;9.87;;;8.83;;
4389;SDS011;2209;48.982;8.406;2022-11-15T03:19:47;10.80;;;9.30;;
4389;SDS011;2209;48.982;8.406;2022-11-15T03:22:12;11.03;;;9.93;;
4389;SDS011;2209;48.982;8.406;2022-11-15T03:24:38;10.43;;;9.37;;
4389;SDS011;2209;48.982;8.406;2022-11-15T03:27:00;11.13;;;9.17;;
4389;SDS011;2209;48.982;8.406;2022-11-15T03:29:25;10.93;;;9.30;;
4389;SDS011;2209;48.982;8.406;2022-11-15T03:31:50;10.93;;;9.50;;
4389;SDS011;2209;48.982;8.406;2022-11-15T03:34:19;10.43;;;9.27;;
4389;SDS011;2209;48.982;8.406;2022-11-15T03:36:46;14.00;;;10.20;;
4389;SDS011;2209;48.982;8.406;2022-11-15T03:39:10;8.80;;;7.43;;
4389;SDS011;2209;48.982;8.406;2022-11-15T03:41:35;8.60;;;7.80;;
4389;SDS011;2209;48.982;8.406;2022-11-15T03:44:03;11.07;;;9.30;;
4389;SDS011;2209;48.982;8.406;2022-11-15T03:46:32;8.30;;;7.30;;
4389;SDS011;2209;48.982;8.406;2022-11-15T03:49:00;8.93;;;8.03;;
4389;SDS011;2209;48.982;8.406;2022-11-15T03:51:27;10.43;;;9.33;;
4389;SDS011;2209;48.982;8.406;2022-11-15T03:53:52;11.97;;;9.43;;
4389;SDS011;2209;48.982;8.406;2022-11-15T03:56:14;9.67;;;7.93;;
4389;SDS011;2209;48.982;8.406;2022-11-15T03:58:36;7.20;;;5.87;;
4389;SDS011;2209;48.982;8.406;2022-11-15T04:00:58;8.73;;;7.43;;
4389;SDS011;2209;48.982;8.406;2022-11-15T04:03:20;8.57;;;7.73;;
4389;SDS011;2209;48.982;8.406;2022-11-15T04:05:42;8.40;;;7.53;;
4389;SDS011;2209;48.982;8.406;2022-11-15T04:08:04;10.23;;;7.50;;
4389;SDS011;2209;48.982;8.406;2022-11-15T04:10:28;9.17;;;7.67;;
4389;SDS011;2209;48.982;8.406;2022-11-15T04:12:50;7.83;;;7.07;;
4389;SDS011;2209;48.982;8.406;2022-11-15T04:15:12;9.97;;;7.40;;
4389;SDS011;2209;48.982;8.406;2022-11-15T04:17:37;10.70;;;7.90;;
4389;SDS011;2209;48.982;8.406;2022-11-15T04:20:01;8.43;;;7.47;;
4389;SDS011;2209;48.982;8.406;2022-11-15T04:22:42;9.37;;;7.50;;
4389;SDS011;2209;48.982;8.406;2022-11-15T04:25:24;9.77;;;7.20;;
4389;SDS011;2209;48.982;8.406;2022-11-15T04:27:47;9.83;;;7.90;;
4389;SDS011;2209;48.982;8.406;2022-11-15T04:30:10;8.47;;;7.60;;
4389;SDS011;2209;48.982;8.406;2022-11-15T04:32:32;7.60;;;7.00;;
4389;SDS011;2209;48.982;8.406;2022-11-15T04:34:54;10.93;;;8.67;;
4389;SDS011;2209;48.982;8.406;2022-11-15T04:37:16;14.20;;;10.67;;
4389;SDS011;2209;48.982;8.406;2022-11-15T04:39:37;11.60;;;10.43;;
4389;SDS011;2209;48.982;8.406;2022-11-15T04:41:59;12.23;;;7.10;;
4389;SDS011;2209;48.982;8.406;2022-11-15T04:44:22;6.20;;;5.60;;
4389;SDS011;2209;48.982;8.406;2022-11-15T04:46:44;7.20;;;6.50;;
4389;SDS011;2209;48.982;8.406;2022-11-15T04:49:07;8.97;;;7.20;;
4389;SDS011;2209;48.982;8.406;2022-11-15T04:51:29;8.73;;;7.40;;
4389;SDS011;2209;48.982;8.406;2022-11-15T04:53:51;7.23;;;6.53;;
4389;SDS011;2209;48.982;8.406;2022-11-15T04:56:13;9.83;;;7.07;;
4389;SDS011;2209;48.982;8.406;2022-11-15T04:58:35;10.87;;;7.57;;
4389;SDS011;2209;48.982;8.406;2022-11-15T05:00:58;8.80;;;6.80;;
4389;SDS011;2209;48.982;8.406;2022-11-15T05:03:28;7.80;;;6.73;;
4389;SDS011;2209;48.982;8.406;2022-11-15T05:06:08;9.10;;;8.20;;
4389;SDS011;2209;48.982;8.406;2022-11-15T05:08:30;9.97;;;7.20;;
4389;SDS011;2209;48.982;8.406;2022-11-15T05:10:52;9.87;;;7.77;;
4389;SDS011;2209;48.982;8.406;2022-11-15T05:13:14;13.13;;;7.97;;
4389;SDS011;2209;48.982;8.406;2022-11-15T05:15:36;7.63;;;6.67;;
4389;SDS011;2209;48.982;8.406;2022-11-15T05:17:59;9.10;;;7.00;;
4389;SDS011;2209;48.982;8.406;2022-11-15T05:20:21;7.90;;;7.10;;
4389;SDS011;2209;48.982;8.406;2022-11-15T05:22:44;9.30;;;7.80;;
4389;SDS011;2209;48.982;8.406;2022-11-15T05:25:06;15.57;;;7.17;;
4389;SDS011;2209;48.982;8.406;2022-11-15T05:27:29;9.20;;;7.93;;
4389;SDS011;2209;48.982;8.406;2022-11-15T05:29:51;10.33;;;7.80;;
4389;SDS011;2209;48.982;8.406;2022-11-15T05:32:13;9.13;;;8.20;;
4389;SDS011;2209;48.982;8.406;2022-11-15T05:34:37;8.97;;;7.10;;
4389;SDS011;2209;48.982;8.406;2022-11-15T05:36:59;9.10;;;7.07;;
4389;SDS011;2209;48.982;8.406;2022-11-15T05:39:22;7.80;;;7.10;;
4389;SDS011;2209;48.982;8.406;2022-11-15T05:41:46;8.33;;;7.53;;
4389;SDS011;2209;48.982;8.406;2022-11-15T05:44:13;8.67;;;7.23;;
4389;SDS011;2209;48.982;8.406;2022-11-15T05:46:38;7.93;;;6.77;;
4389;SDS011;2209;48.982;8.406;2022-11-15T05:49:02;9.50;;;7.73;;
4389;SDS011;2209;48.982;8.406;2022-11-15T05:51:29;8.80;;;7.53;;
4389;SDS011;2209;48.982;8.406;2022-11-15T05:53:52;9.00;;;7.93;;
4389;SDS011;2209;48.982;8.406;2022-11-15T05:56:16;9.43;;;8.17;;
4389;SDS011;2209;48.982;8.406;2022-11-15T05:58:38;9.93;;;7.67;;
4389;SDS011;2209;48.982;8.406;2022-11-15T06:01:01;8.60;;;7.10;;
4389;SDS011;2209;48.982;8.406;2022-11-15T06:03:23;7.87;;;7.17;;
4389;SDS011;2209;48.982;8.406;2022-11-15T06:05:45;10.17;;;8.43;;
4389;SDS011;2209;48.982;8.406;2022-11-15T06:08:09;10.43;;;8.23;;
4389;SDS011;2209;48.982;8.406;2022-11-15T06:10:31;8.00;;;7.17;;
4389;SDS011;2209;48.982;8.406;2022-11-15T06:12:57;8.90;;;8.00;;
4389;SDS011;2209;48.982;8.406;2022-11-15T06:15:19;12.20;;;8.63;;
4389;SDS011;2209;48.982;8.406;2022-11-15T06:17:41;9.90;;;7.37;;
4389;SDS011;2209;48.982;8.406;2022-11-15T06:20:07;8.80;;;7.03;;
4389;SDS011;2209;48.982;8.406;2022-11-15T06:22:30;8.27;;;7.37;;
4389;SDS011;2209;48.982;8.406;2022-11-15T06:24:53;10.10;;;7.27;;
4389;SDS011;2209;48.982;8.406;2022-11-15T06:27:15;8.07;;;6.70;;
4389;SDS011;2209;48.982;8.406;2022-11-15T06:29:37;8.07;;;7.30;;
4389;SDS011;2209;48.982;8.406;2022-11-15T06:31:59;8.80;;;6.97;;
4389;SDS011;2209;48.982;8.406;2022-11-15T06:34:21;9.00;;;7.07;;
4389;SDS011;2209;48.982;8.406;2022-11-15T06:36:47;7.57;;;6.87;;
4389;SDS011;2209;48.982;8.406;2022-11-15T06:39:09;8.60;;;7.70;;
4389;SDS011;2209;48.982;8.406;2022-11-15T06:41:34;8.93;;;7.60;;
4389;SDS011;2209;48.982;8.406;2022-11-15T06:43:57;9.40;;;7.53;;
4389;SDS011;2209;48.982;8.406;2022-11-15T06:46:19;9.17;;;6.97;;
4389;SDS011;2209;48.982;8.406;2022-11-15T06:48:41;10.27;;;7.20;;
4389;SDS011;2209;48.982;8.406;2022-11-15T06:51:03;8.37;;;7.27;;
4389;SDS011;2209;48.982;8.406;2022-11-15T06:53:26;8.93;;;7.23;;
4389;SDS011;2209;48.982;8.406;2022-11-15T06:55:48;9.17;;;7.50;;
4389;SDS011;2209;48.982;8.406;2022-11-15T06:58:12;9.13;;;8.13;;
4389;SDS011;2209;48.982;8.406;2022-11-15T07:00:35;9.87;;;8.00;;
4389;SDS011;2209;48.982;8.406;2022-11-15T07:02:59;12.13;;;8.63;;
4389;SDS011;2209;48.982;8.406;2022-11-15T07:05:21;9.70;;;8.73;;
4389;SDS011;2209;48.982;8.406;2022-11-15T07:07:50;7.57;;;6.90;;
4389;SDS011;2209;48.982;8.406;2022-11-15T07:10:12;8.30;;;7.47;;
4389;SDS011;2209;48.982;8.406;2022-11-15T07:12:36;7.40;;;6.80;;
4389;SDS011;2209;48.982;8.406;2022-11-15T07:14:59;9.23;;;8.37;;
4389;SDS011;2209;48.982;8.406;2022-11-15T07:17:21;9.03;;;7.37;;
4389;SDS011;2209;48.982;8.406;2022-11-15T07:19:43;7.70;;;7.00;;
4389;SDS011;2209;48.982;8.406;2022-11-15T07:22:05;8.20;;;7.40;;
4389;SDS011;2209;48.982;8.406;2022-11-15T07:24:28;6.93;;;6.23;;
4389;SDS011;2209;48.982;8.406;2022-11-15T07:26:50;12.60;;;7.27;;
4389;SDS011;2209;48.982;8.406;2022-11-15T07:29:12;9.70;;;6.83;;
4389;SDS011;2209;48.982;8.406;2022-11-15T07:31:35;8.30;;;7.50;;
4389;SDS011;2209;48.982;8.406;2022-11-15T07:33:58;11.23;;;7.53;;
4389;SDS011;2209;48.982;8.406;2022-11-15T07:36:20;10.83;;;8.67;;
4389;SDS011;2209;48.982;8.406;2022-11-15T07:38:42;8.73;;;6.93;;
4389;SDS011;2209;48.982;8.406;2022-11-15T07:41:05;8.77;;;7.50;;
4389;SDS011;2209;48.982;8.406;2022-11-15T07:43:27;9.23;;;7.07;;
4389;SDS011;2209;48.982;8.406;2022-11-15T07:45:50;8.13;;;7.37;;
4389;SDS011;2209;48.982;8.406;2022-11-15T07:48:13;7.40;;;6.70;;
4389;SDS011;2209;48.982;8.406;2022-11-15T07:50:35;9.93;;;7.57;;
4389;SDS011;2209;48.982;8.406;2022-11-15T07:52:58;11.23;;;7.00;;
4389;SDS011;2209;48.982;8.406;2022-11-15T07:55:21;9.70;;;6.67;;
4389;SDS011;2209;48.982;8.406;2022-11-15T07:57:43;7.10;;;6.07;;
4389;SDS011;2209;48.982;8.406;2022-11-15T08:00:06;8.90;;;7.00;;
4389;SDS011;2209;48.982;8.406;2022-11-15T08:02:29;7.87;;;6.23;;
4389;SDS011;2209;48.982;8.406;2022-11-15T08:04:52;6.77;;;6.20;;
4389;SDS011;2209;48.982;8.406;2022-11-15T08:07:15;6.70;;;5.63;;
4389;SDS011;2209;48.982;8.406;2022-11-15T08:09:37;7.50;;;6.60;;
4389;SDS011;2209;48.982;8.406;2022-11-15T08:11:59;7.70;;;6.80;;
4389;SDS011;2209;48.982;8.406;2022-11-15T08:14:21;7.43;;;6.70;;
4389;SDS011;2209;48.982;8.406;2022-11-15T08:16:43;7.97;;;7.17;;
4389;SDS011;2209;48.982;8.406;2022-11-15T08:19:05;7.77;;;6.00;;
4389;SDS011;2209;48.982;8.406;2022-11-15T08:21:29;8.83;;;6.97;;
4389;SDS011;2209;48.982;8.406;2022-11-15T08:23:51;6.90;;;6.27;;
4389;SDS011;2209;48.982;8.406;2022-11-15T08:26:13;7.20;;;6.27;;
4389;SDS011;2209;48.982;8.406;2022-11-15T08:28:35;7.00;;;6.30;;
4389;SDS011;2209;48.982;8.406;2022-11-15T08:30:58;8.80;;;6.57;;
4389;SDS011;2209;48.982;8.406;2022-11-15T08:33:20;7.00;;;6.27;;
4389;SDS011;2209;48.982;8.406;2022-11-15T08:35:42;10.63;;;6.07;;
4389;SDS011;2209;48.982;8.406;2022-11-15T08:38:06;8.70;;;6.30;;
4389;SDS011;2209;48.982;8.406;2022-11-15T08:40:28;6.93;;;6.23;;
4389;SDS011;2209;48.982;8.406;2022-11-15T08:42:50;9.83;;;6.33;;
4389;SDS011;2209;48.982;8.406;2022-11-15T08:45:13;7.03;;;6.37;;
4389;SDS011;2209;48.982;8.406;2022-11-15T08:47:35;8.00;;;6.30;;
4389;SDS011;2209;48.982;8.406;2022-11-15T08:49:57;7.97;;;7.03;;
4389;SDS011;2209;48.982;8.406;2022-11-15T08:52:19;7.83;;;6.30;;
4389;SDS011;2209;48.982;8.406;2022-11-15T08:54:43;10.33;;;5.77;;
4389;SDS011;2209;48.982;8.406;2022-11-15T08:57:06;8.60;;;6.53;;
4389;SDS011;2209;48.982;8.406;2022-11-15T08:59:30;7.33;;;5.40;;
4389;SDS011;2209;48.982;8.406;2022-11-15T09:01:52;6.73;;;5.80;;
4389;SDS011;2209;48.982;8.406;2022-11-15T09:04:14;8.70;;;4.70;;
4389;SDS011;2209;48.982;8.406;2022-11-15T09:06:36;8.60;;;6.03;;
4389;SDS011;2209;48.982;8.406;2022-11-15T09:08:59;6.80;;;5.63;;
4389;SDS011;2209;48.982;8.406;2022-11-15T09:11:23;9.13;;;6.97;;
4389;SDS011;2209;48.982;8.406;2022-11-15T09:13:46;9.60;;;6.77;;
4389;SDS011;2209;48.982;8.406;2022-11-15T09:16:09;10.20;;;6.30;;
4389;SDS011;2209;48.982;8.406;2022-11-15T09:18:32;13.50;;;6.37;;
4389;SDS011;2209;48.982;8.406;2022-11-15T09:20:54;6.47;;;5.87;;
4389;SDS011;2209;48.982;8.406;2022-11-15T09:23:18;8.80;;;6.90;;
4389;SDS011;2209;48.982;8.406;2022-11-15T09:25:40;9.17;;;7.00;;
4389;SDS011;2209;48.982;8.406;2022-11-15T09:28:06;10.43;;;6.30;;
4389;SDS011;2209;48.982;8.406;2022-11-15T09:30:29;8.30;;;6.60;;
4389;SDS011;2209;48.982;8.406;2022-11-15T09:32:51;11.03;;;7.43;;
4389;SDS011;2209;48.982;8.406;2022-11-15T09:35:13;10.10;;;7.27;;
4389;SDS011;2209;48.982;8.406;2022-11-15T09:37:35;7.77;;;6.57;;
4389;SDS011;2209;48.982;8.406;2022-11-15T09:39:57;7.37;;;6.67;;
4389;SDS011;2209;48.982;8.406;2022-11-15T09:42:25;7.93;;;6.57;;
4389;SDS011;2209;48.982;8.406;2022-11-15T09:45:12;10.20;;;6.70;;
4389;SDS011;2209;48.982;8.406;2022-11-15T09:47:45;7.83;;;6.10;;
4389;SDS011;2209;48.982;8.406;2022-11-15T09:50:20;8.20;;;6.90;;
4389;SDS011;2209;48.982;8.406;2022-11-15T09:52:53;7.40;;;6.60;;
4389;SDS011;2209;48.982;8.406;2022-11-15T09:55:17;10.90;;;6.87;;
4389;SDS011;2209;48.982;8.406;2022-11-15T09:57:42;7.57;;;6.20;;
4389;SDS011;2209;48.982;8.406;2022-11-15T10:00:10;8.50;;;6.30;;
4389;SDS011;2209;48.982;8.406;2022-11-15T10:02:46;8.50;;;6.43;;
4389;SDS011;2209;48.982;8.406;2022-11-15T10:05:20;6.97;;;6.20;;
4389;SDS011;2209;48.982;8.406;2022-11-15T10:07:46;9.67;;;6.37;;
4389;SDS011;2209;48.982;8.406;2022-11-15T10:10:14;10.03;;;6.40;;
4389;SDS011;2209;48.982;8.406;2022-11-15T10:12:43;7.33;;;6.60;;
4389;SDS011;2209;48.982;8.406;2022-11-15T10:15:11;10.87;;;6.13;;
4389;SDS011;2209;48.982;8.406;2022-11-15T10:17:48;8.83;;;6.47;;
4389;SDS011;2209;48.982;8.406;2022-11-15T10:20:22;6.93;;;6.10;;
4389;SDS011;2209;48.982;8.406;2022-11-15T10:22:47;8.60;;;7.13;;
4389;SDS011;2209;48.982;8.406;2022-11-15T10:25:14;7.67;;;6.50;;
4389;SDS011;2209;48.982;8.406;2022-11-15T10:27:39;7.27;;;6.57;;
4389;SDS011;2209;48.982;8.406;2022-11-15T10:30:02;9.90;;;7.40;;
4389;SDS011;2209;48.982;8.406;2022-11-15T10:32:34;10.17;;;8.30;;
4389;SDS011;2209;48.982;8.406;2022-11-15T10:34:58;13.70;;;9.70;;
4389;SDS011;2209;48.982;8.406;2022-11-15T10:37:27;15.10;;;10.10;;
4389;SDS011;2209;48.982;8.406;2022-11-15T10:40:01;10.93;;;9.83;;
4389;SDS011;2209;48.982;8.406;2022-11-15T10:42:25;9.10;;;7.27;;
4389;SDS011;2209;48.982;8.406;2022-11-15T10:44:49;15.90;;;7.50;;
4389;SDS011;2209;48.982;8.406;2022-11-15T10:47:27;10.03;;;7.30;;
4389;SDS011;2209;48.982;8.406;2022-11-15T10:50:04;13.00;;;7.20;;
4389;SDS011;2209;48.982;8.406;2022-11-15T10:52:29;9.10;;;8.00;;
4389;SDS011;2209;48.982;8.406;2022-11-15T10:54:54;10.70;;;7.93;;
4389;SDS011;2209;48.982;8.406;2022-11-15T10:57:20;8.30;;;7.20;;
4389;SDS011;2209;48.982;8.406;2022-11-15T10:59:44;14.00;;;8.10;;
4389;SDS011;2209;48.982;8.406;2022-11-15T11:04:53;12.70;;;7.70;;
4389;SDS011;2209;48.982;8.406;2022-11-15T11:07:21;12.57;;;7.37;;
4389;SDS011;2209;48.982;8.406;2022-11-15T11:09:44;10.23;;;7.50;;
4389;SDS011;2209;48.982;8.406;2022-11-15T11:12:18;8.30;;;7.50;;
4389;SDS011;2209;48.982;8.406;2022-11-15T11:14:50;15.83;;;7.67;;
4389;SDS011;2209;48.982;8.406;2022-11-15T11:17:13;13.03;;;8.10;;
4389;SDS011;2209;48.982;8.406;2022-11-15T11:19:48;10.37;;;7.70;;
4389;SDS011;2209;48.982;8.406;2022-11-15T11:22:19;7.83;;;7.03;;
4389;SDS011;2209;48.982;8.406;2022-11-15T11:24:50;10.43;;;7.50;;
4389;SDS011;2209;48.982;8.406;2022-11-15T11:27:24;13.87;;;8.70;;
4389;SDS011;2209;48.982;8.406;2022-11-15T11:30:00;8.67;;;7.77;;
4389;SDS011;2209;48.982;8.406;2022-11-15T11:32:40;11.83;;;8.10;;
4389;SDS011;2209;48.982;8.406;2022-11-15T11:35:21;12.70;;;7.10;;
4389;SDS011;2209;48.982;8.406;2022-11-15T11:37:49;8.80;;;8.00;;
4389;SDS011;2209;48.982;8.406;2022-11-15T11:40:16;10.17;;;6.80;;
4389;SDS011;2209;48.982;8.406;2022-11-15T11:42:47;9.17;;;6.43;;
4389;SDS011;2209;48.982;8.406;2022-11-15T11:45:21;9.87;;;7.13;;
4389;SDS011;2209;48.982;8.406;2022-11-15T11:47:51;7.77;;;6.40;;
4389;SDS011;2209;48.982;8.406;2022-11-15T11:50:23;9.53;;;6.87;;
4389;SDS011;2209;48.982;8.406;2022-11-15T11:52:53;8.40;;;6.93;;
4389;SDS011;2209;48.982;8.406;2022-11-15T11:55:20;9.30;;;7.30;;
4389;SDS011;2209;48.982;8.406;2022-11-15T11:57:46;11.60;;;7.00;;
4389;SDS011;2209;48.982;8.406;2022-11-15T12:00:15;7.37;;;6.73;;
4389;SDS011;2209;48.982;8.406;2022-11-15T12:02:41;9.27;;;6.87;;
4389;SDS011;2209;48.982;8.406;2022-11-15T12:05:09;10.80;;;7.10;;
4389;SDS011;2209;48.982;8.406;2022-11-15T12:07:34;7.70;;;6.90;;
4389;SDS011;2209;48.982;8.406;2022-11-15T12:10:01;11.33;;;6.93;;
4389;SDS011;2209;48.982;8.406;2022-11-15T12:12:27;12.73;;;7.37;;
4389;SDS011;2209;48.982;8.406;2022-11-15T12:14:57;11.80;;;7.13;;
4389;SDS011;2209;48.982;8.406;2022-11-15T12:17:24;16.40;;;6.83;;
4389;SDS011;2209;48.982;8.406;2022-11-15T12:19:52;6.90;;;6.20;;
4389;SDS011;2209;48.982;8.406;2022-11-15T12:22:18;9.43;;;6.07;;
4389;SDS011;2209;48.982;8.406;2022-11-15T12:24:43;10.30;;;6.43;;
4389;SDS011;2209;48.982;8.406;2022-11-15T12:27:14;7.00;;;5.93;;
4389;SDS011;2209;48.982;8.406;2022-11-15T12:29:41;6.97;;;5.60;;
4389;SDS011;2209;48.982;8.406;2022-11-15T12:32:05;5.73;;;5.23;;
4389;SDS011;2209;48.982;8.406;2022-11-15T12:34:42;8.40;;;6.53;;
4389;SDS011;2209;48.982;8.406;2022-11-15T12:40:19;9.23;;;6.47;;
4389;SDS011;2209;48.982;8.406;2022-11-15T12:42:58;9.73;;;6.70;;
4389;SDS011;2209;48.982;8.406;2022-11-15T12:45:24;10.90;;;6.77;;
4389;SDS011;2209;48.982;8.406;2022-11-15T12:47:47;10.70;;;7.60;;
4389;SDS011;2209;48.982;8.406;2022-11-15T12:50:11;12.03;;;6.63;;
4389;SDS011;2209;48.982;8.406;2022-11-15T12:52:39;7.90;;;6.37;;
4389;SDS011;2209;48.982;8.406;2022-11-15T12:55:41;7.20;;;5.80;;
4389;SDS011;2209;48.982;8.406;2022-11-15T13:00:48;11.50;;;6.23;;
4389;SDS011;2209;48.982;8.406;2022-11-15T13:06:10;10.13;;;6.47;;
4389;SDS011;2209;48.982;8.406;2022-11-15T13:08:57;11.47;;;5.50;;
4389;SDS011;2209;48.982;8.406;2022-11-15T13:17:09;12.30;;;4.50;;
4389;SDS011;2209;48.982;8.406;2022-11-15T13:19:40;5.03;;;4.53;;
4389;SDS011;2209;48.982;8.406;2022-11-15T13:22:04;6.30;;;5.20;;
4389;SDS011;2209;48.982;8.406;2022-11-15T13:24:44;6.20;;;4.23;;
4389;SDS011;2209;48.982;8.406;2022-11-15T13:27:12;5.23;;;4.67;;
4389;SDS011;2209;48.982;8.406;2022-11-15T13:29:39;5.07;;;4.30;;
4389;SDS011;2209;48.982;8.406;2022-11-15T13:32:09;5.20;;;4.70;;
4389;SDS011;2209;48.982;8.406;2022-11-15T13:34:33;5.73;;;4.70;;
4389;SDS011;2209;48.982;8.406;2022-11-15T13:36:56;7.53;;;5.00;;
4389;SDS011;2209;48.982;8.406;2022-11-15T13:39:28;5.50;;;4.90;;
4389;SDS011;2209;48.982;8.406;2022-11-15T13:41:53;6.03;;;4.93;;
4389;SDS011;2209;48.982;8.406;2022-11-15T13:44:19;6.97;;;4.73;;
4389;SDS011;2209;48.982;8.406;2022-11-15T13:46:43;4.87;;;4.37;;
4389;SDS011;2209;48.982;8.406;2022-11-15T13:49:08;6.30;;;4.80;;
4389;SDS011;2209;48.982;8.406;2022-11-15T13:51:36;5.70;;;4.30;;
4389;SDS011;2209;48.982;8.406;2022-11-15T13:54:01;9.00;;;4.63;;
4389;SDS011;2209;48.982;8.406;2022-11-15T13:56:31;5.57;;;4.10;;
4389;SDS011;2209;48.982;8.406;2022-11-15T13:58:54;5.27;;;4.47;;
4389;SDS011;2209;48.982;8.406;2022-11-15T14:01:18;5.00;;;4.43;;
4389;SDS011;2209;48.982;8.406;2022-11-15T14:03:46;5.23;;;3.80;;
4389;SDS011;2209;48.982;8.406;2022-11-15T14:06:15;4.97;;;3.43;;
4389;SDS011;2209;48.982;8.406;2022-11-15T14:08:40;4.10;;;3.70;;
4389;SDS011;2209;48.982;8.406;2022-11-15T14:11:07;4.27;;;3.87;;
4389;SDS011;2209;48.982;8.406;2022-11-15T14:13:34;4.33;;;3.80;;
4389;SDS011;2209;48.982;8.406;2022-11-15T14:16:11;8.33;;;4.30;;
4389;SDS011;2209;48.982;8.406;2022-11-15T14:18:40;4.00;;;3.67;;
4389;SDS011;2209;48.982;8.406;2022-11-15T14:21:06;3.90;;;3.50;;
4389;SDS011;2209;48.982;8.406;2022-11-15T14:23:29;7.40;;;3.93;;
4389;SDS011;2209;48.982;8.406;2022-11-15T14:25:52;4.20;;;3.80;;
4389;SDS011;2209;48.982;8.406;2022-11-15T14:28:27;6.00;;;4.10;;
4389;SDS011;2209;48.982;8.406;2022-11-15T14:30:51;8.57;;;4.23;;
4389;SDS011;2209;48.982;8.406;2022-11-15T14:33:18;8.87;;;4.03;;
4389;SDS011;2209;48.982;8.406;2022-11-15T14:35:43;4.10;;;3.77;;
4389;SDS011;2209;48.982;8.406;2022-11-15T14:38:05;4.77;;;4.37;;
4389;SDS011;2209;48.982;8.406;2022-11-15T14:40:28;4.77;;;4.30;;
4389;SDS011;2209;48.982;8.406;2022-11-15T14:42:50;5.53;;;4.67;;
4389;SDS011;2209;48.982;8.406;2022-11-15T14:45:12;5.87;;;4.70;;
4389;SDS011;2209;48.982;8.406;2022-11-15T14:47:36;5.70;;;5.07;;
4389;SDS011;2209;48.982;8.406;2022-11-15T14:49:58;7.70;;;5.20;;
4389;SDS011;2209;48.982;8.406;2022-11-15T14:52:26;8.40;;;4.73;;
4389;SDS011;2209;48.982;8.406;2022-11-15T14:54:49;4.67;;;4.23;;
4389;SDS011;2209;48.982;8.406;2022-11-15T14:57:11;4.70;;;4.30;;
4389;SDS011;2209;48.982;8.406;2022-11-15T14:59:33;5.50;;;4.40;;
4389;SDS011;2209;48.982;8.406;2022-11-15T15:01:55;5.90;;;4.60;;
4389;SDS011;2209;48.982;8.406;2022-11-15T15:04:19;4.80;;;4.30;;
4389;SDS011;2209;48.982;8.406;2022-11-15T15:06:41;7.20;;;4.37;;
4389;SDS011;2209;48.982;8.406;2022-11-15T15:09:04;9.47;;;5.57;;
4389;SDS011;2209;48.982;8.406;2022-11-15T15:11:27;4.90;;;4.33;;
4389;SDS011;2209;48.982;8.406;2022-11-15T15:13:51;5.07;;;4.67;;
4389;SDS011;2209;48.982;8.406;2022-11-15T15:16:16;5.00;;;4.43;;
4389;SDS011;2209;48.982;8.406;2022-11-15T15:18:38;8.57;;;5.53;;
4389;SDS011;2209;48.982;8.406;2022-11-15T15:21:00;12.50;;;4.50;;